Time;durP1;ratioP1;P1;durP2;ratioP2;P2;SDS_P1;SDS_P2;PMS_P1;PMS_P2;Temp;Humidity;BMP_temperature;BMP_pressure;BME280_temperature;BME280_humidity;BME280_pressure;Samples;Min_cycle;Max_cycle;Signal;HPM_P1;HPM_P2
2024/02/27 00:02:21;;;;;;;23.13;13.45;;;5.50;84.40;;;;;;9183521;19;20018;-66
2024/02/27 00:05:27;;;;;;;24.13;12.88;;;5.50;84.50;;;;;;9183105;19;20081;-67
2024/02/27 00:08:34;;;;;;;24.20;12.57;;;5.50;84.50;;;;;;9183952;19;20010;-66
2024/02/27 00:11:40;;;;;;;24.38;13.20;;;5.50;84.50;;;;;;9183819;19;20011;-66
2024/02/27 00:14:47;;;;;;;26.10;13.00;;;5.50;84.50;;;;;;9183923;19;20749;-66
2024/02/27 00:17:56;;;;;;;26.23;12.80;;;5.40;84.50;;;;;;9182594;19;20027;-66
2024/02/27 00:21:03;;;;;;;25.02;13.52;;;5.50;84.60;;;;;;9182315;19;20014;-65
2024/02/27 00:24:09;;;;;;;22.75;13.48;;;5.50;84.60;;;;;;9184335;19;20010;-66
2024/02/27 00:27:17;;;;;;;28.63;13.95;;;5.50;84.60;;;;;;9181598;19;20661;-66
2024/02/27 00:30:22;;;;;;;24.88;12.75;;;5.50;85.20;;;;;;9183507;19;20502;-65
2024/02/27 00:33:32;;;;;;;24.63;12.80;;;5.50;84.60;;;;;;9181890;19;20014;-66
2024/02/27 00:36:38;;;;;;;27.10;14.15;;;5.50;84.50;;;;;;9180956;19;20050;-67
2024/02/27 00:39:45;;;;;;;28.60;13.77;;;5.50;85.20;;;;;;9181256;19;20025;-67
2024/02/27 00:42:51;;;;;;;27.17;13.65;;;5.50;84.60;;;;;;9182619;19;20025;-66
2024/02/27 00:45:58;;;;;;;26.48;13.77;;;5.50;84.60;;;;;;9181373;19;20015;-67
2024/02/27 00:49:07;;;;;;;24.73;12.65;;;5.50;84.60;;;;;;9181393;19;20029;-66
2024/02/27 00:52:15;;;;;;;28.38;14.82;;;5.50;84.60;;;;;;9181770;19;20421;-66
2024/02/27 00:55:21;;;;;;;25.63;14.30;;;5.50;84.60;;;;;;9177130;19;20015;-66
2024/02/27 00:58:29;;;;;;;32.15;13.52;;;5.50;84.60;;;;;;9179313;19;20025;-66
2024/02/27 01:01:36;;;;;;;29.10;14.07;;;5.50;84.50;;;;;;9178493;19;20348;-66
2024/02/27 01:04:46;;;;;;;24.25;13.30;;;5.50;84.50;;;;;;9181631;19;20495;-67
2024/02/27 01:07:52;;;;;;;26.95;14.02;;;5.50;84.50;;;;;;9180562;19;20027;-66
2024/02/27 01:10:59;;;;;;;26.60;14.77;;;5.50;84.50;;;;;;9180620;19;20015;-66
2024/02/27 01:14:05;;;;;;;26.42;14.27;;;5.50;85.10;;;;;;9181503;19;20017;-66
2024/02/27 01:17:12;;;;;;;28.77;14.57;;;5.50;84.50;;;;;;9178951;19;20026;-66
2024/02/27 01:20:21;;;;;;;26.23;14.23;;;5.50;84.50;;;;;;9178744;19;20010;-66
2024/02/27 01:23:28;;;;;;;29.20;14.35;;;5.50;84.50;;;;;;9179668;19;20011;-66
2024/02/27 01:26:34;;;;;;;29.95;14.35;;;5.40;84.50;;;;;;9180762;19;20078;-66
2024/02/27 01:29:41;;;;;;;28.77;14.32;;;5.40;84.50;;;;;;9180265;19;20355;-66
2024/02/27 01:32:48;;;;;;;27.40;13.75;;;5.50;84.50;;;;;;9178696;19;20019;-67
2024/02/27 01:35:58;;;;;;;29.00;14.38;;;5.50;84.50;;;;;;9179373;19;20025;-66
2024/02/27 01:39:04;;;;;;;32.88;14.38;;;5.40;84.50;;;;;;9177566;19;20006;-67
2024/02/27 01:42:13;;;;;;;31.17;15.25;;;5.40;84.50;;;;;;9179409;19;20022;-66
2024/02/27 01:45:21;;;;;;;26.90;14.43;;;5.40;84.50;;;;;;9179512;19;20035;-65
2024/02/27 01:48:30;;;;;;;31.85;15.45;;;5.40;84.50;;;;;;9178655;19;20070;-67
2024/02/27 01:51:39;;;;;;;27.55;14.13;;;5.40;84.50;;;;;;9180181;19;20049;-66
2024/02/27 01:54:49;;;;;;;27.05;13.60;;;5.40;84.50;;;;;;9178822;19;20025;-66
2024/02/27 01:57:55;;;;;;;25.17;13.52;;;5.40;84.60;;;;;;9174933;19;20129;-66
2024/02/27 02:01:04;;;;;;;31.73;15.55;;;5.40;84.60;;;;;;9176580;19;20029;-67
2024/02/27 02:04:14;;;;;;;29.98;14.45;;;5.40;84.50;;;;;;9178583;19;20039;-66
2024/02/27 02:07:24;;;;;;;32.30;15.13;;;5.40;84.50;;;;;;9178675;19;20019;-65
2024/02/27 02:10:30;;;;;;;29.00;14.55;;;5.40;84.50;;;;;;9178401;19;20017;-65
2024/02/27 02:13:38;;;;;;;34.53;15.57;;;5.40;84.50;;;;;;9178746;19;20074;-66
2024/02/27 02:16:44;;;;;;;29.05;15.38;;;5.30;84.50;;;;;;9179534;19;20125;-65
2024/02/27 02:19:51;;;;;;;26.08;14.20;;;5.40;84.50;;;;;;9175046;19;20904;-65
2024/02/27 02:22:59;;;;;;;24.83;13.07;;;5.40;84.50;;;;;;9177448;19;20017;-67
2024/02/27 02:26:08;;;;;;;29.55;14.70;;;5.30;84.40;;;;;;9177713;19;20018;-66
2024/02/27 02:29:14;;;;;;;30.17;15.40;;;5.30;84.40;;;;;;9178318;19;20494;-66
2024/02/27 02:32:21;;;;;;;29.83;14.93;;;5.30;84.40;;;;;;9176055;19;20498;-66
2024/02/27 02:35:27;;;;;;;28.17;14.93;;;5.30;84.40;;;;;;9177851;19;20021;-67
2024/02/27 02:38:37;;;;;;;28.88;14.32;;;5.30;84.40;;;;;;9175749;19;20098;-66
2024/02/27 02:41:42;;;;;;;28.25;14.73;;;5.20;84.40;;;;;;9175443;19;20013;-66
2024/02/27 02:44:50;;;;;;;28.83;14.50;;;5.20;84.40;;;;;;9176852;19;20018;-66
2024/02/27 02:47:57;;;;;;;34.60;15.90;;;5.20;84.40;;;;;;9176350;19;20473;-66
2024/02/27 02:51:05;;;;;;;29.42;14.82;;;5.20;84.40;;;;;;9175655;19;20015;-65
2024/02/27 02:54:13;;;;;;;32.38;15.68;;;5.20;84.40;;;;;;9176709;19;20021;-65
2024/02/27 02:57:35;;;;;;;29.83;14.23;;;5.20;85.00;;;;;;9173016;19;20051;-67
2024/02/27 03:00:41;;;;;;;26.45;12.77;;;5.10;84.30;;;;;;9175310;19;20398;-68
2024/02/27 03:03:49;;;;;;;26.52;14.32;;;5.10;84.30;;;;;;9176409;19;20010;-67
2024/02/27 03:06:54;;;;;;;32.10;15.55;;;5.10;84.30;;;;;;9176864;19;20483;-67
2024/02/27 03:10:05;;;;;;;26.95;13.60;;;5.00;84.30;;;;;;9176136;19;20018;-68
2024/02/27 03:13:11;;;;;;;29.08;13.93;;;5.00;84.30;;;;;;9175691;19;20109;-67
2024/02/27 03:16:18;;;;;;;25.95;13.57;;;5.00;84.30;;;;;;9175625;19;20082;-67
2024/02/27 03:19:25;;;;;;;31.48;14.43;;;4.90;84.20;;;;;;9175382;19;20015;-68
2024/02/27 03:22:33;;;;;;;30.58;14.93;;;4.90;84.20;;;;;;9176268;19;20363;-67
2024/02/27 03:25:41;;;;;;;28.55;13.55;;;4.90;84.30;;;;;;9175607;19;20022;-67
2024/02/27 03:28:48;;;;;;;29.50;14.50;;;4.80;84.20;;;;;;9176285;19;20037;-67
2024/02/27 03:31:54;;;;;;;29.98;15.10;;;4.80;84.30;;;;;;9174952;19;20014;-67
2024/02/27 03:35:01;;;;;;;27.92;14.52;;;4.80;84.30;;;;;;9175366;19;20025;-67
2024/02/27 03:38:08;;;;;;;27.45;13.77;;;4.80;84.40;;;;;;9173532;19;20082;-67
2024/02/27 03:41:18;;;;;;;32.25;14.50;;;4.70;84.40;;;;;;9174590;19;20022;-67
2024/02/27 03:44:24;;;;;;;30.50;13.82;;;4.70;84.40;;;;;;9175250;19;20011;-67
2024/02/27 03:47:32;;;;;;;32.78;14.30;;;4.70;84.40;;;;;;9174055;19;20019;-67
2024/02/27 03:50:38;;;;;;;28.83;13.43;;;4.70;84.40;;;;;;9173556;19;20383;-67
2024/02/27 03:53:45;;;;;;;30.45;14.50;;;4.70;84.50;;;;;;9174276;19;20025;-67
2024/02/27 03:56:53;;;;;;;28.58;13.95;;;4.70;84.50;;;;;;9176861;19;20006;-66
2024/02/27 04:00:03;;;;;;;27.08;14.00;;;4.60;84.40;;;;;;9183375;19;20023;-67
2024/02/27 04:03:09;;;;;;;28.95;15.05;;;4.60;84.40;;;;;;9182947;19;20014;-67
2024/02/27 04:06:17;;;;;;;30.85;14.23;;;4.60;84.40;;;;;;9183111;19;20025;-67
2024/02/27 04:09:23;;;;;;;33.00;14.88;;;4.60;84.40;;;;;;9182780;19;20484;-67
2024/02/27 04:12:33;;;;;;;32.80;14.77;;;4.50;84.40;;;;;;9183082;19;20010;-67
2024/02/27 04:15:39;;;;;;;31.73;14.70;;;4.50;84.50;;;;;;9183239;19;20107;-67
2024/02/27 04:18:47;;;;;;;32.45;15.15;;;4.50;84.50;;;;;;9183148;19;20014;-65
2024/02/27 04:21:53;;;;;;;26.92;13.73;;;4.50;84.50;;;;;;9180811;19;20017;-67
2024/02/27 04:25:00;;;;;;;33.13;13.90;;;4.50;84.60;;;;;;9181978;19;20391;-66
2024/02/27 04:28:08;;;;;;;29.63;14.02;;;4.50;84.60;;;;;;9183082;19;20040;-66
2024/02/27 04:31:16;;;;;;;24.85;12.77;;;4.50;84.60;;;;;;9182292;19;20006;-66
2024/02/27 04:34:22;;;;;;;28.33;13.88;;;4.50;84.60;;;;;;9182485;19;20029;-66
2024/02/27 04:37:29;;;;;;;27.73;13.38;;;4.40;84.50;;;;;;9181061;19;20014;-66
2024/02/27 04:40:35;;;;;;;28.33;13.38;;;4.40;84.50;;;;;;9181708;19;20017;-65
2024/02/27 04:43:45;;;;;;;27.33;13.07;;;4.40;84.60;;;;;;9181589;19;20018;-66
2024/02/27 04:46:51;;;;;;;32.10;14.90;;;4.40;84.60;;;;;;9181033;19;20363;-65
2024/02/27 04:49:58;;;;;;;31.33;14.57;;;4.40;84.60;;;;;;9180413;19;20021;-66
2024/02/27 04:53:03;;;;;;;28.70;13.68;;;4.40;84.60;;;;;;9181622;19;20022;-66
2024/02/27 04:56:11;;;;;;;27.50;13.93;;;4.30;84.60;;;;;;9176853;19;20018;-65
2024/02/27 04:59:19;;;;;;;31.42;14.82;;;4.30;84.60;;;;;;9179604;19;20010;-65
2024/02/27 05:02:27;;;;;;;25.33;13.00;;;4.30;84.60;;;;;;9178121;19;20026;-66
2024/02/27 05:05:32;;;;;;;28.08;13.68;;;4.30;84.70;;;;;;9180223;19;20007;-67
2024/02/27 05:08:40;;;;;;;33.10;14.60;;;4.30;84.60;;;;;;9178493;19;20019;-66
2024/02/27 05:11:46;;;;;;;27.15;12.93;;;4.20;84.60;;;;;;9180454;19;20109;-65
2024/02/27 05:14:56;;;;;;;27.50;13.90;;;4.20;84.60;;;;;;9180555;19;20022;-68
2024/02/27 05:18:02;;;;;;;29.42;14.20;;;4.20;84.70;;;;;;9179451;19;20011;-67
2024/02/27 05:21:10;;;;;;;30.50;14.60;;;4.20;84.70;;;;;;9180114;19;20018;-67
2024/02/27 05:24:16;;;;;;;30.13;14.95;;;4.20;84.70;;;;;;9180802;19;20490;-66
2024/02/27 05:27:23;;;;;;;28.95;13.68;;;4.20;84.80;;;;;;9179952;19;20014;-66
2024/02/27 05:30:31;;;;;;;28.52;14.23;;;4.10;84.70;;;;;;9180194;19;20096;-66
2024/02/27 05:33:39;;;;;;;30.95;15.60;;;4.10;84.80;;;;;;9179587;19;20833;-66
2024/02/27 05:36:44;;;;;;;29.55;13.52;;;4.10;84.80;;;;;;9178666;19;20014;-68
2024/02/27 05:39:52;;;;;;;31.65;14.43;;;4.10;84.80;;;;;;9176889;19;20652;-66
2024/02/27 05:42:58;;;;;;;37.50;14.98;;;4.10;84.80;;;;;;9177720;19;20377;-66
2024/02/27 05:46:09;;;;;;;35.40;15.32;;;4.10;84.90;;;;;;9179074;19;20025;-66
2024/02/27 05:49:15;;;;;;;36.42;16.08;;;4.00;84.80;;;;;;9178839;19;20028;-66
2024/02/27 05:52:23;;;;;;;29.77;15.40;;;4.00;84.80;;;;;;9179797;19;20015;-66
2024/02/27 05:55:28;;;;;;;31.45;14.77;;;4.00;84.90;;;;;;9173318;19;20467;-65
2024/02/27 05:58:37;;;;;;;30.15;13.82;;;4.00;85.00;;;;;;9178887;19;20466;-65
2024/02/27 06:01:45;;;;;;;31.48;13.65;;;4.00;85.00;;;;;;9178076;19;20459;-65
2024/02/27 06:04:53;;;;;;;31.70;14.82;;;3.90;85.00;;;;;;9177230;19;20506;-66
2024/02/27 06:07:58;;;;;;;35.13;15.20;;;3.90;85.10;;;;;;9179033;19;20014;-66
2024/02/27 06:11:06;;;;;;;30.92;15.05;;;3.90;85.00;;;;;;9177684;19;20491;-66
2024/02/27 06:14:13;;;;;;;29.33;13.57;;;3.90;85.10;;;;;;9180166;19;20459;-65
2024/02/27 06:17:23;;;;;;;28.02;13.25;;;3.90;85.20;;;;;;9178029;19;20490;-67
2024/02/27 06:23:48;;;;;;;29.65;13.88;;;3.80;85.10;;;;;;9176938;19;20033;-66
2024/02/27 06:26:54;;;;;;;32.28;14.00;;;3.80;85.20;;;;;;9178636;19;20014;-66
2024/02/27 06:30:01;;;;;;;28.67;13.52;;;3.80;85.20;;;;;;9177485;19;20022;-66
2024/02/27 06:33:09;;;;;;;29.38;14.85;;;3.80;85.20;;;;;;9177627;19;20011;-66
2024/02/27 06:36:17;;;;;;;32.20;14.98;;;3.80;85.30;;;;;;9175290;19;20007;-66
2024/02/27 06:39:23;;;;;;;31.40;15.02;;;3.80;85.20;;;;;;9177707;19;20014;-66
2024/02/27 06:42:35;;;;;;;28.40;13.25;;;3.80;85.30;;;;;;9176214;19;20018;-66
2024/02/27 06:45:42;;;;;;;27.42;13.60;;;3.80;85.30;;;;;;9174885;19;20073;-66
2024/02/27 06:48:55;;;;;;;31.77;14.80;;;3.80;85.40;;;;;;9173102;19;20017;-66
2024/02/27 06:52:15;;;;;;;32.22;15.90;;;3.80;85.30;;;;;;9176208;19;20015;-68
2024/02/27 06:55:23;;;;;;;33.75;15.32;;;3.80;85.30;;;;;;9171783;19;20011;-66
2024/02/27 06:58:29;;;;;;;30.15;15.20;;;3.90;85.40;;;;;;9176713;19;20113;-66
2024/02/27 07:01:36;;;;;;;30.42;15.18;;;3.90;85.40;;;;;;9174210;19;20010;-66
2024/02/27 07:04:44;;;;;;;32.28;14.82;;;3.90;85.50;;;;;;9175002;19;20015;-66
2024/02/27 07:07:52;;;;;;;32.10;14.30;;;3.90;85.40;;;;;;9176181;19;20019;-67
2024/02/27 07:10:57;;;;;;;31.00;14.80;;;3.90;85.40;;;;;;9173800;19;20019;-66
2024/02/27 07:14:05;;;;;;;31.95;14.82;;;3.90;85.40;;;;;;9175886;19;20015;-67
2024/02/27 07:17:12;;;;;;;31.20;15.43;;;3.90;85.50;;;;;;9176119;19;20491;-66
2024/02/27 07:20:22;;;;;;;31.58;15.55;;;3.90;85.50;;;;;;9175283;19;20022;-66
2024/02/27 07:23:28;;;;;;;32.95;16.02;;;3.90;85.50;;;;;;9174066;19;20023;-66
2024/02/27 07:26:35;;;;;;;30.40;15.05;;;3.90;85.40;;;;;;9175458;19;20359;-67
2024/02/27 07:29:41;;;;;;;32.65;15.13;;;3.90;85.50;;;;;;9178407;19;20018;-67
2024/02/27 07:32:48;;;;;;;30.42;14.93;;;3.90;85.50;;;;;;9183555;19;20024;-67
2024/02/27 07:35:56;;;;;;;33.17;14.55;;;3.90;85.50;;;;;;9183584;19;20015;-66
2024/02/27 07:39:05;;;;;;;31.25;14.65;;;4.00;85.60;;;;;;9181413;19;20349;-67
2024/02/27 07:42:10;;;;;;;34.15;15.50;;;4.00;85.60;;;;;;9185326;19;20022;-67
2024/02/27 07:45:18;;;;;;;33.33;15.70;;;4.00;85.60;;;;;;9181433;19;20014;-67
2024/02/27 07:48:24;;;;;;;30.27;15.57;;;4.00;85.60;;;;;;9183319;19;20685;-67
2024/02/27 07:51:35;;;;;;;34.20;16.23;;;4.00;85.60;;;;;;9184221;19;20022;-68
2024/02/27 07:54:42;;;;;;;33.60;15.85;;;4.00;85.60;;;;;;9183233;19;20018;-68
2024/02/27 07:57:50;;;;;;;32.08;15.32;;;4.00;85.60;;;;;;9180076;19;20018;-67
2024/02/27 08:00:55;;;;;;;31.17;15.13;;;4.10;85.60;;;;;;9183626;19;20042;-67
2024/02/27 08:04:04;;;;;;;33.00;15.80;;;4.10;85.60;;;;;;9180696;19;20018;-67
2024/02/27 08:07:12;;;;;;;28.48;14.27;;;4.00;85.60;;;;;;9183003;19;20022;-67
2024/02/27 08:10:20;;;;;;;33.95;16.10;;;4.00;85.60;;;;;;9181072;19;20018;-64
2024/02/27 08:13:25;;;;;;;31.67;14.90;;;4.00;85.60;;;;;;9183057;19;20019;-64
2024/02/27 08:16:33;;;;;;;32.08;15.05;;;4.00;85.60;;;;;;9183385;19;20014;-64
2024/02/27 08:19:39;;;;;;;29.27;13.95;;;4.00;85.70;;;;;;9181614;19;20002;-66
2024/02/27 08:22:50;;;;;;;30.05;15.43;;;4.00;86.30;;;;;;9182702;19;20029;-64
2024/02/27 08:25:56;;;;;;;38.03;16.67;;;4.10;86.40;;;;;;9181596;19;20618;-63
2024/02/27 08:29:03;;;;;;;34.00;15.40;;;4.10;85.80;;;;;;9182764;19;20565;-65
2024/02/27 08:32:09;;;;;;;33.83;15.50;;;4.10;85.80;;;;;;9181357;19;20047;-63
2024/02/27 08:35:17;;;;;;;33.15;15.30;;;4.10;85.80;;;;;;9183196;19;20364;-66
2024/02/27 08:38:25;;;;;;;31.02;14.27;;;4.10;85.80;;;;;;9180632;19;20018;-64
2024/02/27 08:41:33;;;;;;;33.50;15.57;;;4.10;85.80;;;;;;9179855;19;20026;-66
2024/02/27 08:44:38;;;;;;;33.20;14.50;;;4.10;85.80;;;;;;9179244;19;20016;-65
2024/02/27 08:47:46;;;;;;;33.15;15.85;;;4.10;85.80;;;;;;9182644;19;20010;-65
2024/02/27 08:50:52;;;;;;;33.28;15.27;;;4.10;85.70;;;;;;9180701;19;20367;-65
2024/02/27 08:54:03;;;;;;;32.60;14.55;;;4.10;85.80;;;;;;9180340;19;20014;-66
2024/02/27 08:57:08;;;;;;;31.00;14.63;;;4.20;85.80;;;;;;9176144;19;20011;-64
2024/02/27 09:00:17;;;;;;;38.30;15.27;;;4.20;85.90;;;;;;9180137;19;20022;-63
2024/02/27 09:03:23;;;;;;;33.45;15.65;;;4.20;85.80;;;;;;9178714;19;20527;-64
2024/02/27 09:06:30;;;;;;;33.30;14.65;;;4.20;85.90;;;;;;9180232;19;20015;-64
2024/02/27 09:09:39;;;;;;;30.90;13.75;;;4.30;85.90;;;;;;9180605;19;20010;-66
2024/02/27 09:12:46;;;;;;;30.63;14.27;;;4.30;85.90;;;;;;9178635;19;20018;-66
2024/02/27 09:15:52;;;;;;;28.80;13.70;;;4.30;86.00;;;;;;9180990;19;20023;-65
2024/02/27 09:19:00;;;;;;;29.55;13.80;;;4.30;85.90;;;;;;9180444;19;20018;-65
2024/02/27 09:22:06;;;;;;;33.10;13.77;;;4.30;85.90;;;;;;9179444;19;20074;-65
2024/02/27 09:25:16;;;;;;;29.17;13.65;;;4.30;85.90;;;;;;9175546;19;20026;-65
2024/02/27 09:28:21;;;;;;;32.38;14.40;;;4.40;85.90;;;;;;9178886;19;20039;-65
2024/02/27 09:31:29;;;;;;;31.45;13.63;;;4.40;86.60;;;;;;9179736;19;20011;-63
2024/02/27 09:34:36;;;;;;;27.70;12.60;;;4.40;86.50;;;;;;9177140;19;20018;-64
2024/02/27 09:37:44;;;;;;;30.30;13.07;;;4.40;85.90;;;;;;9177463;19;20054;-64
2024/02/27 09:40:54;;;;;;;29.75;13.65;;;4.40;86.50;;;;;;9178620;19;20122;-64
2024/02/27 09:44:03;;;;;;;28.80;14.00;;;4.40;85.90;;;;;;9177910;19;20022;-65
2024/02/27 09:47:09;;;;;;;36.88;14.88;;;4.40;85.90;;;;;;9179535;19;20010;-65
2024/02/27 09:50:20;;;;;;;37.97;13.50;;;4.40;85.90;;;;;;9178499;19;20474;-65
2024/02/27 09:53:26;;;;;;;35.55;13.52;;;4.40;85.90;;;;;;9177046;19;20017;-65
2024/02/27 09:56:37;;;;;;;28.48;12.73;;;4.40;85.90;;;;;;9172501;19;20372;-64
2024/02/27 09:59:43;;;;;;;29.10;13.05;;;4.50;86.00;;;;;;9178101;19;20029;-65
2024/02/27 10:02:52;;;;;;;24.40;12.18;;;4.50;86.00;;;;;;9166063;19;20678;-65
2024/02/27 10:05:59;;;;;;;29.70;12.30;;;4.50;86.00;;;;;;9176477;19;20018;-66
2024/02/27 10:09:11;;;;;;;31.95;14.00;;;4.60;86.00;;;;;;9170490;19;20010;-66
2024/02/27 10:12:19;;;;;;;27.92;13.48;;;4.60;85.90;;;;;;9174656;19;20018;-64
2024/02/27 10:15:27;;;;;;;29.02;12.93;;;4.50;85.90;;;;;;9167954;19;20042;-65
2024/02/27 10:18:33;;;;;;;30.23;12.57;;;4.60;86.00;;;;;;9173561;19;20019;-65
2024/02/27 10:21:41;;;;;;;28.58;13.07;;;4.60;86.00;;;;;;9175580;19;20026;-65
2024/02/27 10:24:48;;;;;;;35.80;14.93;;;4.60;86.50;;;;;;9174807;19;20356;-65
2024/02/27 10:27:59;;;;;;;28.55;13.80;;;4.60;85.90;;;;;;9172108;19;20011;-66
2024/02/27 10:31:08;;;;;;;27.55;12.85;;;4.70;86.00;;;;;;9173204;19;20558;-66
2024/02/27 10:34:15;;;;;;;34.72;14.93;;;4.70;86.00;;;;;;9172928;19;20010;-66
2024/02/27 10:37:24;;;;;;;32.08;15.48;;;4.70;86.00;;;;;;9175211;19;20018;-66
2024/02/27 10:40:32;;;;;;;31.83;13.73;;;4.70;86.00;;;;;;9174873;19;20003;-65
2024/02/27 10:43:41;;;;;;;28.88;12.57;;;4.70;86.60;;;;;;9174814;19;20030;-67
2024/02/27 10:46:49;;;;;;;30.90;13.68;;;4.70;86.00;;;;;;9173273;19;20025;-65
2024/02/27 10:49:56;;;;;;;32.42;14.30;;;4.80;86.00;;;;;;9174750;19;20014;-65
2024/02/27 10:53:06;;;;;;;30.00;13.60;;;4.80;86.00;;;;;;9172400;19;20011;-65
2024/02/27 10:56:13;;;;;;;35.38;15.77;;;4.80;86.00;;;;;;9174383;19;20015;-64
2024/02/27 10:59:27;;;;;;;31.10;14.73;;;4.80;86.00;;;;;;9174348;19;20014;-64
2024/02/27 11:02:39;;;;;;;43.03;15.07;;;4.90;86.10;;;;;;9173058;19;20006;-65
2024/02/27 11:05:48;;;;;;;35.35;15.55;;;4.90;86.10;;;;;;9178080;19;20022;-65
2024/02/27 11:08:59;;;;;;;41.38;18.35;;;4.90;86.10;;;;;;9183978;19;20105;-67
2024/02/27 11:12:11;;;;;;;44.22;17.73;;;5.00;86.10;;;;;;9179952;19;20014;-66
2024/02/27 11:15:20;;;;;;;39.53;16.88;;;5.00;86.00;;;;;;9178686;19;20014;-64
2024/02/27 11:18:34;;;;;;;47.25;19.05;;;5.00;86.00;;;;;;9180455;19;20021;-65
2024/02/27 11:21:41;;;;;;;39.50;16.67;;;5.10;86.10;;;;;;9181808;19;20384;-66
2024/02/27 11:24:49;;;;;;;42.75;18.27;;;5.10;86.00;;;;;;9179081;19;20010;-66
2024/02/27 11:27:57;;;;;;;46.17;19.27;;;5.10;86.00;;;;;;9179263;19;20507;-63
2024/02/27 11:31:07;;;;;;;50.72;19.95;;;5.10;86.00;;;;;;9181469;19;20015;-65
2024/02/27 11:34:13;;;;;;;38.40;16.00;;;5.20;85.90;;;;;;9182925;19;20022;-66
2024/02/27 11:37:22;;;;;;;43.38;19.00;;;5.20;85.90;;;;;;9179790;19;20015;-64
2024/02/27 11:40:52;;;;;;;47.15;19.42;;;5.20;86.00;;;;;;9183829;19;20041;-67
2024/02/27 11:44:01;;;;;;;46.92;18.48;;;5.20;86.00;;;;;;9183843;19;20030;-65
2024/02/27 11:47:41;;;;;;;46.85;20.13;;;5.20;86.00;;;;;;9180285;19;20018;-65
2024/02/27 11:50:50;;;;;;;48.65;19.17;;;5.30;86.00;;;;;;9169908;19;20002;-67
2024/02/27 11:53:56;;;;;;;50.05;18.85;;;5.30;86.00;;;;;;9163835;19;20018;-66
2024/02/27 11:57:03;;;;;;;54.42;21.27;;;5.30;86.00;;;;;;9181627;19;20027;-65
2024/02/27 12:00:15;;;;;;;50.50;21.23;;;5.30;85.90;;;;;;9183910;19;20046;-68
2024/02/27 12:03:25;;;;;;;51.78;21.35;;;5.40;85.90;;;;;;9183464;19;20651;-64
2024/02/27 12:06:31;;;;;;;57.20;21.98;;;5.40;85.90;;;;;;9179684;19;20022;-63
2024/02/27 12:09:38;;;;;;;49.20;20.17;;;5.40;85.90;;;;;;9182398;19;20031;-64
2024/02/27 12:12:45;;;;;;;47.55;18.65;;;5.40;85.90;;;;;;9182320;19;20007;-63
2024/02/27 12:15:59;;;;;;;46.25;18.80;;;5.50;86.00;;;;;;9175919;19;20017;-63
2024/02/27 12:19:07;;;;;;;46.20;18.13;;;5.50;85.90;;;;;;9183653;19;20025;-66
2024/02/27 12:22:14;;;;;;;47.58;19.83;;;5.50;85.80;;;;;;9182840;19;20014;-63
2024/02/27 12:25:20;;;;;;;47.78;19.85;;;5.50;85.80;;;;;;9179745;19;20026;-65
2024/02/27 12:28:28;;;;;;;48.75;19.30;;;5.50;85.80;;;;;;9182705;19;20483;-65
2024/02/27 12:31:34;;;;;;;52.78;20.70;;;5.50;85.80;;;;;;9181783;19;20043;-64
2024/02/27 12:34:45;;;;;;;49.13;21.08;;;5.60;85.90;;;;;;9180846;19;20010;-63
2024/02/27 12:37:52;;;;;;;50.63;20.95;;;5.60;85.80;;;;;;9181435;19;20492;-65
2024/02/27 12:41:00;;;;;;;50.92;21.17;;;5.60;85.80;;;;;;9182441;19;20371;-65
2024/02/27 12:44:06;;;;;;;43.97;19.35;;;5.60;85.80;;;;;;9181932;19;20519;-66
2024/02/27 12:47:14;;;;;;;50.35;21.27;;;5.60;85.80;;;;;;9180214;19;20026;-64
2024/02/27 12:50:22;;;;;;;51.38;20.92;;;5.60;85.70;;;;;;9183919;19;20475;-67
2024/02/27 12:53:30;;;;;;;54.97;21.13;;;5.70;86.50;;;;;;9182014;19;20041;-66
2024/02/27 12:56:37;;;;;;;55.05;20.67;;;5.70;85.80;;;;;;9182018;19;20011;-65
2024/02/27 12:59:46;;;;;;;44.53;18.45;;;5.70;85.80;;;;;;9173350;19;20018;-63
2024/02/27 13:02:56;;;;;;;47.13;19.80;;;5.70;85.80;;;;;;9176895;19;20022;-65
2024/02/27 13:06:07;;;;;;;47.28;19.85;;;5.70;85.70;;;;;;9178952;19;20018;-64
2024/02/27 13:09:14;;;;;;;46.13;19.13;;;5.70;85.70;;;;;;9179855;19;20011;-64
2024/02/27 13:12:22;;;;;;;45.92;19.85;;;5.70;85.70;;;;;;9181991;19;20372;-64
2024/02/27 13:15:27;;;;;;;47.38;20.00;;;5.70;85.70;;;;;;9176687;19;20047;-64
2024/02/27 13:18:35;;;;;;;47.65;19.92;;;5.80;85.80;;;;;;9179905;19;20021;-66
2024/02/27 13:21:43;;;;;;;51.90;19.75;;;5.80;85.80;;;;;;9181109;19;20025;-64
2024/02/27 13:24:51;;;;;;;49.30;19.80;;;5.80;85.70;;;;;;9178626;19;20018;-65
2024/02/27 13:27:56;;;;;;;50.83;20.13;;;5.90;85.80;;;;;;9176654;19;20011;-65
2024/02/27 13:31:04;;;;;;;49.78;20.13;;;5.90;85.70;;;;;;9177311;19;20014;-66
2024/02/27 13:34:09;;;;;;;46.90;20.08;;;5.90;85.70;;;;;;9177707;19;20011;-64
2024/02/27 13:37:20;;;;;;;48.30;20.25;;;6.00;85.70;;;;;;9172595;19;20010;-65
2024/02/27 13:40:25;;;;;;;52.10;20.77;;;6.00;85.70;;;;;;9177155;19;20023;-66
2024/02/27 13:43:33;;;;;;;47.55;19.15;;;6.00;85.70;;;;;;9176686;19;20006;-65
2024/02/27 13:46:40;;;;;;;49.38;20.50;;;6.00;85.60;;;;;;9174920;19;20018;-66
2024/02/27 13:49:47;;;;;;;53.85;22.15;;;6.00;85.70;;;;;;9177156;19;20011;-65
2024/02/27 13:52:55;;;;;;;51.72;21.52;;;6.10;85.60;;;;;;9176432;19;20345;-64
2024/02/27 13:56:03;;;;;;;50.25;21.45;;;6.10;85.50;;;;;;9176802;19;20011;-65
2024/02/27 13:59:08;;;;;;;51.25;20.63;;;6.10;85.50;;;;;;9172757;19;20022;-65
2024/02/27 14:02:17;;;;;;;53.08;20.27;;;6.10;85.40;;;;;;9178973;19;20014;-65
2024/02/27 14:05:22;;;;;;;49.00;19.50;;;6.10;85.40;;;;;;9178046;19;20030;-64
2024/02/27 14:08:33;;;;;;;50.55;21.33;;;6.20;85.50;;;;;;9176603;19;20015;-64
2024/02/27 14:11:40;;;;;;;49.67;20.25;;;6.20;85.50;;;;;;9176737;19;20011;-65
2024/02/27 14:14:48;;;;;;;48.90;20.67;;;6.20;85.50;;;;;;9172477;19;20026;-64
2024/02/27 14:17:53;;;;;;;52.72;20.83;;;6.20;85.40;;;;;;9176412;19;20361;-66
2024/02/27 14:21:01;;;;;;;49.53;20.10;;;6.20;85.40;;;;;;9176919;19;20030;-65
2024/02/27 14:24:10;;;;;;;47.67;20.42;;;6.30;85.50;;;;;;9178122;19;20363;-68
2024/02/27 14:27:17;;;;;;;48.35;21.40;;;6.30;85.50;;;;;;9174902;19;20021;-65
2024/02/27 14:30:23;;;;;;;46.22;18.90;;;6.30;85.40;;;;;;9177201;19;20019;-67
2024/02/27 14:33:30;;;;;;;41.20;18.35;;;6.30;85.40;;;;;;9177248;19;20436;-65
2024/02/27 14:36:36;;;;;;;50.33;20.13;;;6.30;85.40;;;;;;9177272;19;20014;-67
2024/02/27 14:39:47;;;;;;;43.72;19.00;;;6.30;85.40;;;;;;9174528;19;20029;-68
2024/02/27 14:42:53;;;;;;;41.53;18.17;;;6.30;85.40;;;;;;9177882;19;20033;-65
2024/02/27 14:46:01;;;;;;;40.30;17.88;;;6.30;85.40;;;;;;9176128;19;20022;-64
2024/02/27 14:49:06;;;;;;;42.72;19.85;;;6.30;85.40;;;;;;9173293;19;20017;-65
2024/02/27 14:52:14;;;;;;;47.70;20.42;;;6.30;85.40;;;;;;9175843;19;20018;-65
2024/02/27 14:55:22;;;;;;;43.72;18.75;;;6.30;85.30;;;;;;9176571;19;20014;-65
2024/02/27 14:58:30;;;;;;;43.60;17.98;;;6.30;85.20;;;;;;9176918;19;20404;-66
2024/02/27 15:01:35;;;;;;;42.72;18.63;;;6.30;85.30;;;;;;9176863;19;20029;-64
2024/02/27 15:04:44;;;;;;;41.80;18.35;;;6.30;85.30;;;;;;9177249;19;20482;-64
2024/02/27 15:07:49;;;;;;;43.22;18.10;;;6.30;85.30;;;;;;9172286;19;20021;-65
2024/02/27 15:11:00;;;;;;;39.20;17.40;;;6.30;85.20;;;;;;9174637;19;20487;-63
2024/02/27 15:14:06;;;;;;;39.13;17.25;;;6.30;85.30;;;;;;9170128;19;20011;-63
2024/02/27 15:17:14;;;;;;;37.58;16.83;;;6.30;85.20;;;;;;9173857;19;20018;-64
2024/02/27 15:20:20;;;;;;;37.88;16.70;;;6.30;85.20;;;;;;9173401;19;20013;-64
2024/02/27 15:23:27;;;;;;;39.55;17.52;;;6.30;85.20;;;;;;9173398;19;20019;-63
2024/02/27 15:26:35;;;;;;;36.42;16.52;;;6.30;85.20;;;;;;9173047;19;20010;-64
2024/02/27 15:29:43;;;;;;;33.60;15.77;;;6.30;85.20;;;;;;9173689;19;20480;-64
2024/02/27 15:32:48;;;;;;;39.03;17.40;;;6.30;85.20;;;;;;9174637;19;20356;-63
2024/02/27 15:35:56;;;;;;;34.38;15.95;;;6.30;85.20;;;;;;9173227;19;20011;-65
2024/02/27 15:39:03;;;;;;;36.15;16.42;;;6.30;85.20;;;;;;9167297;19;20022;-65
2024/02/27 15:42:13;;;;;;;38.25;16.27;;;6.30;85.20;;;;;;9172902;19;20029;-66
2024/02/27 15:45:19;;;;;;;33.85;16.30;;;6.30;85.10;;;;;;9173113;19;20047;-64
2024/02/27 15:48:27;;;;;;;42.53;17.88;;;6.30;85.10;;;;;;9172410;19;20034;-64
2024/02/27 15:51:32;;;;;;;38.20;17.02;;;6.30;85.10;;;;;;9179481;19;20086;-66
2024/02/27 15:54:40;;;;;;;42.75;17.48;;;6.30;85.10;;;;;;9183713;19;20021;-65
2024/02/27 15:57:49;;;;;;;33.90;15.63;;;6.30;85.10;;;;;;9183195;19;20014;-64
2024/02/27 16:00:57;;;;;;;34.35;14.93;;;6.30;85.00;;;;;;9183304;19;20022;-64
2024/02/27 16:04:20;;;;;;;43.42;17.25;;;6.20;84.90;;;;;;9183708;19;20026;-66
2024/02/27 16:07:33;;;;;;;39.30;17.45;;;6.20;84.90;;;;;;9184111;19;20617;-64